sensor_id;sensor_type;location;lat;lon;timestamp;temperature;humidity
3156;DHT22;1588;50.892;7.082;2022-07-23T00:01:25;19.10;99.90
3156;DHT22;1588;50.892;7.082;2022-07-23T00:06:29;19.00;99.90
3156;DHT22;1588;50.892;7.082;2022-07-23T00:11:31;19.00;99.90
3156;DHT22;1588;50.892;7.082;2022-07-23T00:16:54;18.90;99.90
3156;DHT22;1588;50.892;7.082;2022-07-23T00:21:56;18.90;99.90
3156;DHT22;1588;50.892;7.082;2022-07-23T00:26:58;18.90;99.90
3156;DHT22;1588;50.892;7.082;2022-07-23T00:32:02;18.80;99.90
3156;DHT22;1588;50.892;7.082;2022-07-23T00:37:04;18.80;99.90
3156;DHT22;1588;50.892;7.082;2022-07-23T00:42:07;18.80;99.90
3156;DHT22;1588;50.892;7.082;2022-07-23T00:47:29;18.80;99.90
3156;DHT22;1588;50.892;7.082;2022-07-23T00:52:33;18.70;99.90
3156;DHT22;1588;50.892;7.082;2022-07-23T00:57:37;18.60;99.90
3156;DHT22;1588;50.892;7.082;2022-07-23T01:02:41;18.60;99.90
3156;DHT22;1588;50.892;7.082;2022-07-23T01:07:43;18.50;99.90
3156;DHT22;1588;50.892;7.082;2022-07-23T01:12:46;18.50;99.90
3156;DHT22;1588;50.892;7.082;2022-07-23T01:17:50;18.50;99.90
3156;DHT22;1588;50.892;7.082;2022-07-23T01:22:54;18.40;99.90
3156;DHT22;1588;50.892;7.082;2022-07-23T01:27:57;18.40;99.90
3156;DHT22;1588;50.892;7.082;2022-07-23T01:32:59;18.20;99.90
3156;DHT22;1588;50.892;7.082;2022-07-23T01:38:03;18.10;99.90
3156;DHT22;1588;50.892;7.082;2022-07-23T01:43:05;18.10;99.90
3156;DHT22;1588;50.892;7.082;2022-07-23T01:48:08;18.10;99.90
3156;DHT22;1588;50.892;7.082;2022-07-23T01:53:11;18.00;99.90
3156;DHT22;1588;50.892;7.082;2022-07-23T01:58:14;18.00;99.90
3156;DHT22;1588;50.892;7.082;2022-07-23T02:03:16;18.00;99.90
3156;DHT22;1588;50.892;7.082;2022-07-23T02:08:24;17.90;99.90
3156;DHT22;1588;50.892;7.082;2022-07-23T02:13:26;17.90;99.90
3156;DHT22;1588;50.892;7.082;2022-07-23T02:18:30;17.90;99.90
3156;DHT22;1588;50.892;7.082;2022-07-23T02:23:33;17.70;99.90
3156;DHT22;1588;50.892;7.082;2022-07-23T02:28:35;17.70;99.90
3156;DHT22;1588;50.892;7.082;2022-07-23T02:33:38;17.50;99.90
3156;DHT22;1588;50.892;7.082;2022-07-23T02:38:41;17.50;99.90
3156;DHT22;1588;50.892;7.082;2022-07-23T02:43:43;17.40;99.90
3156;DHT22;1588;50.892;7.082;2022-07-23T02:48:45;17.40;99.90
3156;DHT22;1588;50.892;7.082;2022-07-23T02:53:49;17.50;99.90
3156;DHT22;1588;50.892;7.082;2022-07-23T02:58:51;17.50;99.90
3156;DHT22;1588;50.892;7.082;2022-07-23T03:03:53;17.50;99.90
3156;DHT22;1588;50.892;7.082;2022-07-23T03:08:57;17.50;99.90
3156;DHT22;1588;50.892;7.082;2022-07-23T03:13:59;17.40;99.90
3156;DHT22;1588;50.892;7.082;2022-07-23T03:19:03;17.30;99.90
3156;DHT22;1588;50.892;7.082;2022-07-23T03:24:07;17.30;99.90
3156;DHT22;1588;50.892;7.082;2022-07-23T03:29:10;17.20;99.90
3156;DHT22;1588;50.892;7.082;2022-07-23T03:34:12;17.20;99.90
3156;DHT22;1588;50.892;7.082;2022-07-23T03:39:16;17.10;99.90
3156;DHT22;1588;50.892;7.082;2022-07-23T03:44:18;17.10;99.90
3156;DHT22;1588;50.892;7.082;2022-07-23T03:49:20;17.00;99.90
3156;DHT22;1588;50.892;7.082;2022-07-23T03:54:24;16.90;99.90
3156;DHT22;1588;50.892;7.082;2022-07-23T03:59:26;16.80;99.90
3156;DHT22;1588;50.892;7.082;2022-07-23T04:04:29;16.70;99.90
3156;DHT22;1588;50.892;7.082;2022-07-23T04:09:33;16.70;99.90
3156;DHT22;1588;50.892;7.082;2022-07-23T04:14:37;16.70;99.90
3156;DHT22;1588;50.892;7.082;2022-07-23T04:19:40;16.70;99.90
3156;DHT22;1588;50.892;7.082;2022-07-23T04:24:45;16.70;99.90
3156;DHT22;1588;50.892;7.082;2022-07-23T04:29:47;16.60;99.90
3156;DHT22;1588;50.892;7.082;2022-07-23T04:34:50;16.60;99.90
3156;DHT22;1588;50.892;7.082;2022-07-23T04:39:53;16.60;99.90
3156;DHT22;1588;50.892;7.082;2022-07-23T04:44:55;16.70;99.90
3156;DHT22;1588;50.892;7.082;2022-07-23T04:49:58;16.70;99.90
3156;DHT22;1588;50.892;7.082;2022-07-23T04:55:20;16.80;99.90
3156;DHT22;1588;50.892;7.082;2022-07-23T05:00:22;16.90;99.90
3156;DHT22;1588;50.892;7.082;2022-07-23T05:05:24;17.00;99.90
3156;DHT22;1588;50.892;7.082;2022-07-23T05:10:28;17.10;99.90
3156;DHT22;1588;50.892;7.082;2022-07-23T05:15:30;17.40;99.90
3156;DHT22;1588;50.892;7.082;2022-07-23T05:20:32;17.60;99.90
3156;DHT22;1588;50.892;7.082;2022-07-23T05:25:36;17.70;99.90
3156;DHT22;1588;50.892;7.082;2022-07-23T05:30:38;17.90;99.90
3156;DHT22;1588;50.892;7.082;2022-07-23T05:35:40;17.90;99.90
3156;DHT22;1588;50.892;7.082;2022-07-23T05:40:44;18.10;99.90
3156;DHT22;1588;50.892;7.082;2022-07-23T05:45:46;18.10;99.90
3156;DHT22;1588;50.892;7.082;2022-07-23T05:50:48;18.20;99.90
3156;DHT22;1588;50.892;7.082;2022-07-23T05:55:52;18.10;99.90
3156;DHT22;1588;50.892;7.082;2022-07-23T06:00:54;18.00;99.90
3156;DHT22;1588;50.892;7.082;2022-07-23T06:05:56;18.10;99.90
3156;DHT22;1588;50.892;7.082;2022-07-23T06:11:00;18.30;99.90
3156;DHT22;1588;50.892;7.082;2022-07-23T06:16:02;18.40;99.90
3156;DHT22;1588;50.892;7.082;2022-07-23T06:21:05;18.30;99.90
3156;DHT22;1588;50.892;7.082;2022-07-23T06:26:10;18.30;99.90
3156;DHT22;1588;50.892;7.082;2022-07-23T06:31:12;18.60;99.90
3156;DHT22;1588;50.892;7.082;2022-07-23T06:36:14;19.00;99.90
3156;DHT22;1588;50.892;7.082;2022-07-23T06:41:18;19.40;99.90
3156;DHT22;1588;50.892;7.082;2022-07-23T06:46:20;19.30;99.90
3156;DHT22;1588;50.892;7.082;2022-07-23T06:51:22;19.30;99.90
3156;DHT22;1588;50.892;7.082;2022-07-23T06:56:26;19.40;99.90
3156;DHT22;1588;50.892;7.082;2022-07-23T07:01:28;19.50;99.90
3156;DHT22;1588;50.892;7.082;2022-07-23T07:06:31;19.50;99.90
3156;DHT22;1588;50.892;7.082;2022-07-23T07:11:34;19.70;99.90
3156;DHT22;1588;50.892;7.082;2022-07-23T07:16:37;19.90;99.90
3156;DHT22;1588;50.892;7.082;2022-07-23T07:21:39;20.50;99.90
3156;DHT22;1588;50.892;7.082;2022-07-23T07:26:43;21.40;99.90
3156;DHT22;1588;50.892;7.082;2022-07-23T07:31:45;21.80;99.90
3156;DHT22;1588;50.892;7.082;2022-07-23T07:36:48;21.90;99.90
3156;DHT22;1588;50.892;7.082;2022-07-23T07:41:52;22.10;99.90
3156;DHT22;1588;50.892;7.082;2022-07-23T07:46:54;21.70;99.90
3156;DHT22;1588;50.892;7.082;2022-07-23T07:51:56;21.30;99.90
3156;DHT22;1588;50.892;7.082;2022-07-23T07:57:00;21.60;99.90
3156;DHT22;1588;50.892;7.082;2022-07-23T08:02:02;22.20;99.90
3156;DHT22;1588;50.892;7.082;2022-07-23T08:07:04;23.10;99.90
3156;DHT22;1588;50.892;7.082;2022-07-23T08:12:08;23.80;99.90
3156;DHT22;1588;50.892;7.082;2022-07-23T08:17:29;24.30;99.90
3156;DHT22;1588;50.892;7.082;2022-07-23T08:22:45;25.00;99.90
3156;DHT22;1588;50.892;7.082;2022-07-23T08:27:50;25.30;99.90
3156;DHT22;1588;50.892;7.082;2022-07-23T08:32:55;25.30;99.90
3156;DHT22;1588;50.892;7.082;2022-07-23T08:37:58;25.20;99.90
3156;DHT22;1588;50.892;7.082;2022-07-23T08:43:04;25.30;99.90
3156;DHT22;1588;50.892;7.082;2022-07-23T08:48:11;24.50;99.90
3156;DHT22;1588;50.892;7.082;2022-07-23T08:53:15;24.00;99.90
3156;DHT22;1588;50.892;7.082;2022-07-23T08:58:19;24.40;99.90
3156;DHT22;1588;50.892;7.082;2022-07-23T09:03:22;24.00;99.90
3156;DHT22;1588;50.892;7.082;2022-07-23T09:08:34;23.70;99.90
3156;DHT22;1588;50.892;7.082;2022-07-23T09:13:40;23.90;99.90
3156;DHT22;1588;50.892;7.082;2022-07-23T09:18:46;24.70;99.90
3156;DHT22;1588;50.892;7.082;2022-07-23T09:23:53;25.40;99.90
3156;DHT22;1588;50.892;7.082;2022-07-23T09:28:59;25.90;99.90
3156;DHT22;1588;50.892;7.082;2022-07-23T09:34:09;26.60;99.90
3156;DHT22;1588;50.892;7.082;2022-07-23T09:39:12;26.40;99.90
3156;DHT22;1588;50.892;7.082;2022-07-23T09:44:17;26.70;99.90
3156;DHT22;1588;50.892;7.082;2022-07-23T09:49:21;26.90;99.90
3156;DHT22;1588;50.892;7.082;2022-07-23T09:54:29;27.20;99.90
3156;DHT22;1588;50.892;7.082;2022-07-23T09:59:35;27.60;99.90
3156;DHT22;1588;50.892;7.082;2022-07-23T10:04:38;27.90;99.90
3156;DHT22;1588;50.892;7.082;2022-07-23T10:09:41;27.40;99.90
3156;DHT22;1588;50.892;7.082;2022-07-23T10:14:46;27.40;99.90
3156;DHT22;1588;50.892;7.082;2022-07-23T10:19:48;27.80;99.90
3156;DHT22;1588;50.892;7.082;2022-07-23T10:25:00;28.20;99.90
3156;DHT22;1588;50.892;7.082;2022-07-23T10:30:09;28.10;99.90
3156;DHT22;1588;50.892;7.082;2022-07-23T10:35:21;27.90;99.90
3156;DHT22;1588;50.892;7.082;2022-07-23T10:40:24;28.00;99.90
3156;DHT22;1588;50.892;7.082;2022-07-23T10:45:31;28.10;99.90
3156;DHT22;1588;50.892;7.082;2022-07-23T10:50:33;28.30;99.90
3156;DHT22;1588;50.892;7.082;2022-07-23T10:55:48;27.90;99.90
3156;DHT22;1588;50.892;7.082;2022-07-23T11:00:54;28.00;99.90
3156;DHT22;1588;50.892;7.082;2022-07-23T11:05:57;28.30;99.90
3156;DHT22;1588;50.892;7.082;2022-07-23T11:11:10;28.00;99.90
3156;DHT22;1588;50.892;7.082;2022-07-23T11:16:17;28.10;99.90
3156;DHT22;1588;50.892;7.082;2022-07-23T11:21:44;28.50;99.90
3156;DHT22;1588;50.892;7.082;2022-07-23T11:26:49;28.40;99.90
3156;DHT22;1588;50.892;7.082;2022-07-23T11:31:54;28.30;99.90
3156;DHT22;1588;50.892;7.082;2022-07-23T11:36:58;28.50;99.90
3156;DHT22;1588;50.892;7.082;2022-07-23T11:42:01;28.60;99.90
3156;DHT22;1588;50.892;7.082;2022-07-23T11:47:08;28.80;99.90
3156;DHT22;1588;50.892;7.082;2022-07-23T11:52:12;28.80;99.90
3156;DHT22;1588;50.892;7.082;2022-07-23T11:57:15;28.50;99.90
3156;DHT22;1588;50.892;7.082;2022-07-23T12:02:19;28.40;99.90
3156;DHT22;1588;50.892;7.082;2022-07-23T12:07:27;28.30;99.90
3156;DHT22;1588;50.892;7.082;2022-07-23T12:12:36;28.20;99.90
3156;DHT22;1588;50.892;7.082;2022-07-23T12:17:41;28.60;99.90
3156;DHT22;1588;50.892;7.082;2022-07-23T12:22:46;28.30;99.90
3156;DHT22;1588;50.892;7.082;2022-07-23T12:28:02;28.60;99.90
3156;DHT22;1588;50.892;7.082;2022-07-23T12:33:07;28.70;99.90
3156;DHT22;1588;50.892;7.082;2022-07-23T12:38:18;28.50;99.90
3156;DHT22;1588;50.892;7.082;2022-07-23T12:43:23;28.40;99.90
3156;DHT22;1588;50.892;7.082;2022-07-23T12:48:28;28.50;99.90
3156;DHT22;1588;50.892;7.082;2022-07-23T12:53:36;28.20;99.90
3156;DHT22;1588;50.892;7.082;2022-07-23T12:58:43;28.10;99.90
3156;DHT22;1588;50.892;7.082;2022-07-23T13:03:56;27.20;99.90
3156;DHT22;1588;50.892;7.082;2022-07-23T13:09:00;27.60;99.90
3156;DHT22;1588;50.892;7.082;2022-07-23T13:14:11;27.80;99.90
3156;DHT22;1588;50.892;7.082;2022-07-23T13:19:15;28.10;99.90
3156;DHT22;1588;50.892;7.082;2022-07-23T13:24:36;28.00;99.90
3156;DHT22;1588;50.892;7.082;2022-07-23T13:29:39;27.60;99.90
3156;DHT22;1588;50.892;7.082;2022-07-23T13:34:43;27.80;99.90
3156;DHT22;1588;50.892;7.082;2022-07-23T13:39:54;27.90;99.90
3156;DHT22;1588;50.892;7.082;2022-07-23T13:44:59;27.90;99.90
3156;DHT22;1588;50.892;7.082;2022-07-23T13:50:05;27.70;99.90
3156;DHT22;1588;50.892;7.082;2022-07-23T13:55:09;27.20;99.90
3156;DHT22;1588;50.892;7.082;2022-07-23T14:00:12;27.30;99.90
3156;DHT22;1588;50.892;7.082;2022-07-23T14:05:18;27.00;99.90
3156;DHT22;1588;50.892;7.082;2022-07-23T14:10:23;27.10;99.90
3156;DHT22;1588;50.892;7.082;2022-07-23T14:15:31;27.30;99.90
3156;DHT22;1588;50.892;7.082;2022-07-23T14:20:35;27.60;99.90
3156;DHT22;1588;50.892;7.082;2022-07-23T14:25:38;27.90;99.90
3156;DHT22;1588;50.892;7.082;2022-07-23T14:30:41;27.90;99.90
3156;DHT22;1588;50.892;7.082;2022-07-23T14:35:48;27.80;99.90
3156;DHT22;1588;50.892;7.082;2022-07-23T14:40:54;27.80;99.90
3156;DHT22;1588;50.892;7.082;2022-07-23T14:46:09;27.80;99.90
3156;DHT22;1588;50.892;7.082;2022-07-23T14:51:16;27.70;99.90
3156;DHT22;1588;50.892;7.082;2022-07-23T14:56:25;27.50;99.90
3156;DHT22;1588;50.892;7.082;2022-07-23T15:01:33;27.40;99.90
3156;DHT22;1588;50.892;7.082;2022-07-23T15:06:40;27.20;99.90
3156;DHT22;1588;50.892;7.082;2022-07-23T15:11:47;27.30;99.90
3156;DHT22;1588;50.892;7.082;2022-07-23T15:16:53;27.50;99.90
3156;DHT22;1588;50.892;7.082;2022-07-23T15:21:59;27.40;99.90
3156;DHT22;1588;50.892;7.082;2022-07-23T15:27:03;27.60;99.90
3156;DHT22;1588;50.892;7.082;2022-07-23T15:32:09;27.20;99.90
3156;DHT22;1588;50.892;7.082;2022-07-23T15:37:17;27.20;99.90
3156;DHT22;1588;50.892;7.082;2022-07-23T15:42:19;27.00;99.90
3156;DHT22;1588;50.892;7.082;2022-07-23T15:47:22;27.00;99.90
3156;DHT22;1588;50.892;7.082;2022-07-23T15:52:34;26.90;99.90
3156;DHT22;1588;50.892;7.082;2022-07-23T15:57:36;26.80;99.90
3156;DHT22;1588;50.892;7.082;2022-07-23T16:02:39;27.00;99.90
3156;DHT22;1588;50.892;7.082;2022-07-23T16:07:47;26.90;99.90
3156;DHT22;1588;50.892;7.082;2022-07-23T16:13:04;26.90;99.90
3156;DHT22;1588;50.892;7.082;2022-07-23T16:18:30;26.90;99.90
3156;DHT22;1588;50.892;7.082;2022-07-23T16:23:53;27.10;99.90
3156;DHT22;1588;50.892;7.082;2022-07-23T16:29:28;27.10;99.90
3156;DHT22;1588;50.892;7.082;2022-07-23T16:34:30;26.90;99.90
3156;DHT22;1588;50.892;7.082;2022-07-23T16:39:37;26.80;99.90
3156;DHT22;1588;50.892;7.082;2022-07-23T16:44:40;26.70;99.90
3156;DHT22;1588;50.892;7.082;2022-07-23T16:49:42;26.60;99.90
3156;DHT22;1588;50.892;7.082;2022-07-23T16:54:46;26.40;99.90
3156;DHT22;1588;50.892;7.082;2022-07-23T16:59:48;26.30;99.90
3156;DHT22;1588;50.892;7.082;2022-07-23T17:04:50;26.30;99.90
3156;DHT22;1588;50.892;7.082;2022-07-23T17:09:54;26.20;99.90
3156;DHT22;1588;50.892;7.082;2022-07-23T17:14:57;26.30;99.90
3156;DHT22;1588;50.892;7.082;2022-07-23T17:19:59;26.30;99.90
3156;DHT22;1588;50.892;7.082;2022-07-23T17:25:06;26.10;99.90
3156;DHT22;1588;50.892;7.082;2022-07-23T17:30:13;26.00;99.90
3156;DHT22;1588;50.892;7.082;2022-07-23T17:35:16;25.80;99.90
3156;DHT22;1588;50.892;7.082;2022-07-23T17:40:19;25.70;99.90
3156;DHT22;1588;50.892;7.082;2022-07-23T17:45:22;25.60;99.90
3156;DHT22;1588;50.892;7.082;2022-07-23T17:50:24;25.50;99.90
3156;DHT22;1588;50.892;7.082;2022-07-23T17:55:29;25.30;99.90
3156;DHT22;1588;50.892;7.082;2022-07-23T18:00:34;25.30;99.90
3156;DHT22;1588;50.892;7.082;2022-07-23T18:05:37;25.20;99.90
3156;DHT22;1588;50.892;7.082;2022-07-23T18:10:42;25.20;99.90
3156;DHT22;1588;50.892;7.082;2022-07-23T18:15:45;25.20;99.90
3156;DHT22;1588;50.892;7.082;2022-07-23T18:20:48;25.00;99.90
3156;DHT22;1588;50.892;7.082;2022-07-23T18:25:53;24.80;99.90
3156;DHT22;1588;50.892;7.082;2022-07-23T18:30:56;24.60;99.90
3156;DHT22;1588;50.892;7.082;2022-07-23T18:36:00;24.30;99.90
3156;DHT22;1588;50.892;7.082;2022-07-23T18:41:10;24.20;99.90
3156;DHT22;1588;50.892;7.082;2022-07-23T18:46:14;24.00;99.90
3156;DHT22;1588;50.892;7.082;2022-07-23T18:51:16;23.90;99.90
3156;DHT22;1588;50.892;7.082;2022-07-23T18:56:21;23.60;99.90
3156;DHT22;1588;50.892;7.082;2022-07-23T19:01:24;23.40;99.90
3156;DHT22;1588;50.892;7.082;2022-07-23T19:06:31;23.20;99.90
3156;DHT22;1588;50.892;7.082;2022-07-23T19:11:35;23.00;99.90
3156;DHT22;1588;50.892;7.082;2022-07-23T19:16:38;22.80;99.90
3156;DHT22;1588;50.892;7.082;2022-07-23T19:21:42;22.50;99.90
3156;DHT22;1588;50.892;7.082;2022-07-23T19:26:45;22.30;99.90
3156;DHT22;1588;50.892;7.082;2022-07-23T19:31:47;22.00;99.90
3156;DHT22;1588;50.892;7.082;2022-07-23T19:36:50;21.80;99.90
3156;DHT22;1588;50.892;7.082;2022-07-23T19:41:56;21.60;99.90
3156;DHT22;1588;50.892;7.082;2022-07-23T19:46:59;21.40;99.90
3156;DHT22;1588;50.892;7.082;2022-07-23T19:52:02;21.20;99.90
3156;DHT22;1588;50.892;7.082;2022-07-23T19:57:06;21.00;99.90
3156;DHT22;1588;50.892;7.082;2022-07-23T20:02:08;20.80;99.90
3156;DHT22;1588;50.892;7.082;2022-07-23T20:07:10;20.60;99.90
3156;DHT22;1588;50.892;7.082;2022-07-23T20:12:14;20.50;99.90
3156;DHT22;1588;50.892;7.082;2022-07-23T20:17:16;20.30;99.90
3156;DHT22;1588;50.892;7.082;2022-07-23T20:22:19;20.10;99.90
3156;DHT22;1588;50.892;7.082;2022-07-23T20:27:22;19.90;99.90
3156;DHT22;1588;50.892;7.082;2022-07-23T20:32:24;19.80;99.90
3156;DHT22;1588;50.892;7.082;2022-07-23T20:37:27;19.70;99.90
3156;DHT22;1588;50.892;7.082;2022-07-23T20:42:30;19.60;99.90
3156;DHT22;1588;50.892;7.082;2022-07-23T20:47:33;19.40;99.90
3156;DHT22;1588;50.892;7.082;2022-07-23T20:52:36;19.30;99.90
3156;DHT22;1588;50.892;7.082;2022-07-23T20:57:40;19.30;99.90
3156;DHT22;1588;50.892;7.082;2022-07-23T21:02:49;19.10;99.90
3156;DHT22;1588;50.892;7.082;2022-07-23T21:07:51;19.00;99.90
3156;DHT22;1588;50.892;7.082;2022-07-23T21:12:55;18.80;99.90
3156;DHT22;1588;50.892;7.082;2022-07-23T21:17:57;18.70;99.90
3156;DHT22;1588;50.892;7.082;2022-07-23T21:23:00;18.70;99.90
3156;DHT22;1588;50.892;7.082;2022-07-23T21:28:10;18.60;99.90
3156;DHT22;1588;50.892;7.082;2022-07-23T21:33:13;18.50;99.90
3156;DHT22;1588;50.892;7.082;2022-07-23T21:38:15;18.40;99.90
3156;DHT22;1588;50.892;7.082;2022-07-23T21:43:19;18.30;99.90
3156;DHT22;1588;50.892;7.082;2022-07-23T21:48:23;18.20;99.90
3156;DHT22;1588;50.892;7.082;2022-07-23T21:53:26;18.20;99.90
3156;DHT22;1588;50.892;7.082;2022-07-23T21:58:30;18.00;99.90
3156;DHT22;1588;50.892;7.082;2022-07-23T22:03:32;17.90;99.90
3156;DHT22;1588;50.892;7.082;2022-07-23T22:08:37;17.80;99.90
3156;DHT22;1588;50.892;7.082;2022-07-23T22:13:41;17.70;99.90
3156;DHT22;1588;50.892;7.082;2022-07-23T22:18:44;17.70;99.90
3156;DHT22;1588;50.892;7.082;2022-07-23T22:23:46;17.60;99.90
3156;DHT22;1588;50.892;7.082;2022-07-23T22:28:50;17.60;99.90
3156;DHT22;1588;50.892;7.082;2022-07-23T22:33:52;17.50;99.90
3156;DHT22;1588;50.892;7.082;2022-07-23T22:38:55;17.50;99.90
3156;DHT22;1588;50.892;7.082;2022-07-23T22:43:59;17.50;99.90
3156;DHT22;1588;50.892;7.082;2022-07-23T22:49:01;17.30;99.90
3156;DHT22;1588;50.892;7.082;2022-07-23T22:54:04;17.40;99.90
3156;DHT22;1588;50.892;7.082;2022-07-23T22:59:08;17.30;99.90
3156;DHT22;1588;50.892;7.082;2022-07-23T23:04:21;17.20;99.90
3156;DHT22;1588;50.892;7.082;2022-07-23T23:09:23;17.10;99.90
3156;DHT22;1588;50.892;7.082;2022-07-23T23:14:27;17.00;99.90
3156;DHT22;1588;50.892;7.082;2022-07-23T23:19:29;17.00;99.90
3156;DHT22;1588;50.892;7.082;2022-07-23T23:24:34;17.00;99.90
3156;DHT22;1588;50.892;7.082;2022-07-23T23:29:38;17.00;99.90
3156;DHT22;1588;50.892;7.082;2022-07-23T23:34:40;16.90;99.90
3156;DHT22;1588;50.892;7.082;2022-07-23T23:39:42;16.80;99.90
3156;DHT22;1588;50.892;7.082;2022-07-23T23:44:46;16.70;99.90
3156;DHT22;1588;50.892;7.082;2022-07-23T23:49:48;16.70;99.90
3156;DHT22;1588;50.892;7.082;2022-07-23T23:54:51;16.60;99.90
3156;DHT22;1588;50.892;7.082;2022-07-23T23:59:55;16.50;99.90
